Time;durP1;ratioP1;P1;durP2;ratioP2;P2;SDS_P1;SDS_P2;PMS_P1;PMS_P2;Temp;Humidity;BMP_temperature;BMP_pressure;BME280_temperature;BME280_humidity;BME280_pressure;Samples;Min_cycle;Max_cycle;Signal;HPM_P1;HPM_P2
2023/04/10 00:02:20;;;;;;;33.90;21.83;;;21.70;55.90;;;;;;4877369;29;20462;-65
2023/04/10 00:04:47;;;;;;;32.78;22.42;;;21.50;55.80;;;;;;4877417;29;20112;-66
2023/04/10 00:07:14;;;;;;;31.23;21.83;;;21.60;55.80;;;;;;4877489;29;20060;-66
2023/04/10 00:09:40;;;;;;;35.50;21.63;;;21.60;55.80;;;;;;4877552;29;20767;-66
2023/04/10 00:12:06;;;;;;;34.28;22.85;;;21.60;55.70;;;;;;4877209;29;20112;-66
2023/04/10 00:14:32;;;;;;;37.58;23.08;;;21.60;55.60;;;;;;4877089;29;20075;-65
2023/04/10 00:16:59;;;;;;;39.78;23.50;;;21.50;55.50;;;;;;4877393;29;20506;-66
2023/04/10 00:19:25;;;;;;;34.30;22.90;;;21.60;55.40;;;;;;4877094;29;20040;-64
2023/04/10 00:21:51;;;;;;;35.20;22.80;;;21.60;55.40;;;;;;4861532;29;20041;-65
2023/04/10 00:24:17;;;;;;;38.85;22.20;;;21.60;55.30;;;;;;4875785;29;20033;-65
2023/04/10 00:26:42;;;;;;;38.83;23.35;;;21.70;55.40;;;;;;4876958;29;20037;-65
2023/04/10 00:29:09;;;;;;;33.00;22.85;;;21.70;55.40;;;;;;4877116;29;20038;-66
2023/04/10 00:31:35;;;;;;;34.97;23.30;;;21.70;55.40;;;;;;4876394;29;20040;-66
2023/04/10 00:34:01;;;;;;;35.50;22.58;;;21.60;55.30;;;;;;4877152;29;20365;-66
2023/04/10 00:36:28;;;;;;;31.17;22.15;;;21.80;55.30;;;;;;4885803;29;20056;-65
2023/04/10 00:38:54;;;;;;;32.95;23.73;;;21.80;55.30;;;;;;4877222;29;20039;-65
2023/04/10 00:41:20;;;;;;;34.35;23.25;;;21.60;55.20;;;;;;4877085;29;20052;-66
2023/04/10 00:43:46;;;;;;;34.90;22.67;;;21.70;55.30;;;;;;4891753;29;20033;-65
2023/04/10 00:46:12;;;;;;;37.50;23.35;;;21.70;55.20;;;;;;4877179;29;20557;-65
2023/04/10 00:48:38;;;;;;;29.52;20.77;;;21.70;55.10;;;;;;4879696;29;20029;-65
2023/04/10 00:51:05;;;;;;;34.83;21.98;;;21.80;55.10;;;;;;4894909;29;20036;-65
2023/04/10 00:53:31;;;;;;;37.17;22.98;;;21.80;55.10;;;;;;4880387;29;20037;-66
2023/04/10 00:55:58;;;;;;;32.40;21.20;;;21.80;55.10;;;;;;4880104;29;20041;-66
2023/04/10 00:58:25;;;;;;;31.08;20.95;;;21.80;55.10;;;;;;4880535;29;20037;-66
2023/04/10 01:00:51;;;;;;;34.22;21.73;;;21.70;55.10;;;;;;4880328;29;20060;-64
2023/04/10 01:03:19;;;;;;;32.20;22.40;;;21.70;55.10;;;;;;4878997;29;20101;-66
2023/04/10 01:06:11;;;;;;;36.17;22.98;;;21.70;55.10;;;;;;4880241;29;20072;-65
2023/04/10 01:08:51;;;;;;;36.53;21.70;;;21.80;55.10;;;;;;4879262;29;20068;-66
2023/04/10 01:11:35;;;;;;;31.75;21.27;;;21.70;55.00;;;;;;4894400;29;20097;-66
2023/04/10 01:14:46;;;;;;;34.65;21.33;;;21.70;55.10;;;;;;4862027;29;20406;-65
2023/04/10 01:17:18;;;;;;;34.17;21.70;;;21.60;55.00;;;;;;4879468;29;20041;-65
2023/04/10 01:19:59;;;;;;;32.33;21.20;;;21.50;55.10;;;;;;4879833;29;20133;-65
2023/04/10 01:22:36;;;;;;;36.45;23.30;;;21.50;55.20;;;;;;4879772;29;20055;-65
2023/04/10 01:25:11;;;;;;;30.40;21.65;;;21.50;55.20;;;;;;4879400;29;20041;-65
2023/04/10 01:28:09;;;;;;;31.88;20.75;;;21.50;55.20;;;;;;4894046;29;20093;-66
2023/04/10 01:30:36;;;;;;;31.65;21.95;;;21.50;55.10;;;;;;4893968;29;20494;-66
2023/04/10 01:33:05;;;;;;;33.67;22.23;;;21.60;55.10;;;;;;4893859;29;20059;-66
2023/04/10 01:35:32;;;;;;;33.80;21.38;;;21.70;55.10;;;;;;4876834;29;20074;-64
2023/04/10 01:38:01;;;;;;;30.75;22.23;;;21.60;54.90;;;;;;4877311;29;20060;-64
2023/04/10 01:40:29;;;;;;;37.40;22.35;;;21.70;54.90;;;;;;4877370;29;20490;-66
2023/04/10 01:42:56;;;;;;;34.10;21.60;;;21.70;54.90;;;;;;4861834;29;20040;-64
2023/04/10 01:45:30;;;;;;;33.03;21.85;;;21.60;54.70;;;;;;4861549;29;20049;-66
2023/04/10 01:47:57;;;;;;;32.17;21.83;;;21.60;54.70;;;;;;4877146;29;20034;-66
2023/04/10 01:50:24;;;;;;;38.35;22.75;;;21.60;54.70;;;;;;4876771;29;20060;-63
2023/04/10 01:52:51;;;;;;;30.48;22.08;;;21.60;54.70;;;;;;4861713;29;20112;-65
2023/04/10 01:55:23;;;;;;;34.15;22.40;;;21.50;54.70;;;;;;4861186;29;20127;-65
2023/04/10 01:57:54;;;;;;;33.88;23.10;;;21.50;54.80;;;;;;4860763;29;20057;-65
2023/04/10 02:00:21;;;;;;;34.00;22.50;;;21.60;54.70;;;;;;4861332;29;20049;-65
2023/04/10 02:02:48;;;;;;;36.55;23.40;;;21.40;54.70;;;;;;4861215;29;20819;-65
2023/04/10 02:05:16;;;;;;;32.95;22.77;;;21.40;54.80;;;;;;4857836;29;20049;-65
2023/04/10 02:07:47;;;;;;;31.50;20.55;;;21.40;54.80;;;;;;4842712;29;20063;-66
2023/04/10 02:10:37;;;;;;;30.48;22.48;;;21.30;54.80;;;;;;4858034;29;20045;-65
2023/04/10 02:13:06;;;;;;;35.97;22.63;;;21.40;54.80;;;;;;4842541;29;20098;-65
2023/04/10 02:15:35;;;;;;;32.42;22.60;;;21.20;54.80;;;;;;4860156;29;20044;-64
2023/04/10 02:18:05;;;;;;;30.77;20.75;;;21.20;54.80;;;;;;4858096;29;20033;-64
2023/04/10 02:20:31;;;;;;;31.83;21.30;;;21.40;54.80;;;;;;4873106;29;20064;-66
2023/04/10 02:23:02;;;;;;;34.08;22.27;;;21.20;54.70;;;;;;4858051;29;20556;-65
2023/04/10 02:25:34;;;;;;;29.40;20.85;;;21.30;54.70;;;;;;4842286;29;20045;-64
2023/04/10 02:28:04;;;;;;;29.43;21.30;;;21.30;54.60;;;;;;4857937;29;20048;-65
2023/04/10 02:30:32;;;;;;;33.20;22.38;;;21.30;54.50;;;;;;4854608;29;20388;-66
2023/04/10 02:32:59;;;;;;;34.50;23.85;;;21.30;54.40;;;;;;4839546;29;20081;-65
2023/04/10 02:35:28;;;;;;;32.65;21.20;;;21.40;54.40;;;;;;4856389;29;20073;-64
2023/04/10 02:37:55;;;;;;;31.45;21.27;;;21.30;54.40;;;;;;4858620;29;20049;-64
2023/04/10 02:40:22;;;;;;;35.30;21.48;;;21.40;54.30;;;;;;4858877;29;20445;-66
2023/04/10 02:42:55;;;;;;;33.47;21.98;;;21.30;54.30;;;;;;4858867;29;20038;-65
2023/04/10 02:45:21;;;;;;;33.17;22.15;;;21.30;54.20;;;;;;4873921;29;20041;-66
2023/04/10 02:47:48;;;;;;;37.40;22.38;;;21.30;54.20;;;;;;4874158;29;20068;-64
2023/04/10 02:50:16;;;;;;;37.22;21.17;;;21.30;54.20;;;;;;4812222;29;20431;-64
2023/04/10 02:52:44;;;;;;;32.08;22.40;;;21.20;54.20;;;;;;4873789;29;20089;-66
2023/04/10 02:55:10;;;;;;;37.03;23.38;;;21.20;54.20;;;;;;4859687;29;20030;-65
2023/04/10 02:57:38;;;;;;;32.60;22.30;;;21.10;54.30;;;;;;4858449;29;20046;-65
2023/04/10 03:00:04;;;;;;;31.17;20.98;;;21.10;54.30;;;;;;4873249;29;20054;-66
2023/04/10 03:02:49;;;;;;;28.90;20.83;;;21.20;54.30;;;;;;4873787;29;20057;-65
2023/04/10 03:05:18;;;;;;;32.53;21.25;;;21.00;54.20;;;;;;4873725;29;20044;-65
2023/04/10 03:07:44;;;;;;;30.63;20.13;;;21.10;54.30;;;;;;4873828;29;20463;-65
2023/04/10 03:10:11;;;;;;;32.03;21.17;;;21.00;54.10;;;;;;4858181;29;20048;-65
2023/04/10 03:12:37;;;;;;;33.70;21.02;;;21.10;54.10;;;;;;4873683;29;20037;-66
2023/04/10 03:15:03;;;;;;;29.50;18.98;;;21.10;54.10;;;;;;4864193;29;20477;-65
2023/04/10 03:17:29;;;;;;;26.48;18.92;;;21.20;54.00;;;;;;4877769;29;20037;-66
2023/04/10 03:19:56;;;;;;;31.52;19.92;;;21.10;54.00;;;;;;4876756;29;20057;-65
2023/04/10 03:22:22;;;;;;;27.98;18.50;;;21.20;53.90;;;;;;4861123;29;20049;-65
2023/04/10 03:24:48;;;;;;;27.02;18.27;;;21.10;53.90;;;;;;4877520;29;20092;-65
2023/04/10 03:27:15;;;;;;;31.63;19.65;;;21.10;53.80;;;;;;4877818;29;20107;-65
2023/04/10 03:29:42;;;;;;;32.17;20.13;;;21.10;53.70;;;;;;4877773;29;20047;-66
2023/04/10 03:32:10;;;;;;;31.58;19.23;;;21.10;53.70;;;;;;4876775;29;20388;-65
2023/04/10 03:34:36;;;;;;;29.27;19.75;;;21.20;53.80;;;;;;4876484;29;20097;-65
2023/04/10 03:37:03;;;;;;;29.48;18.55;;;21.00;53.80;;;;;;4875168;29;20053;-65
2023/04/10 03:39:29;;;;;;;27.83;19.00;;;21.00;53.80;;;;;;4891892;29;20561;-65
2023/04/10 03:41:55;;;;;;;29.33;19.95;;;20.90;53.90;;;;;;4892158;29;20040;-65
2023/04/10 03:44:23;;;;;;;30.88;19.35;;;20.90;53.90;;;;;;4891905;29;20044;-65
2023/04/10 03:46:50;;;;;;;27.95;19.13;;;20.90;53.90;;;;;;4891824;29;20044;-65
2023/04/10 03:49:16;;;;;;;27.75;18.88;;;20.80;53.90;;;;;;4861036;29;20476;-65
2023/04/10 03:51:42;;;;;;;28.90;18.70;;;20.80;54.00;;;;;;4891885;29;20041;-65
2023/04/10 03:54:08;;;;;;;26.25;16.95;;;21.00;53.80;;;;;;4877736;29;20052;-65
2023/04/10 03:56:34;;;;;;;28.70;17.95;;;21.10;53.90;;;;;;4876059;29;20041;-65
2023/04/10 03:59:00;;;;;;;29.92;19.48;;;21.20;53.60;;;;;;4860876;29;20047;-65
2023/04/10 04:01:27;;;;;;;24.52;16.73;;;21.30;53.50;;;;;;4891791;29;20438;-65
2023/04/10 04:04:01;;;;;;;24.45;16.40;;;21.30;53.40;;;;;;4876516;29;20049;-66
2023/04/10 04:06:46;;;;;;;26.90;18.85;;;21.40;53.30;;;;;;4877317;29;20037;-66
2023/04/10 04:09:25;;;;;;;28.85;17.65;;;21.50;53.30;;;;;;4891731;29;20052;-67
2023/04/10 04:12:02;;;;;;;25.90;15.60;;;21.40;53.00;;;;;;4891333;29;20512;-67
2023/04/10 04:14:52;;;;;;;23.45;15.75;;;21.50;52.90;;;;;;4891502;29;20045;-68
2023/04/10 04:17:21;;;;;;;22.70;15.13;;;22.00;53.10;;;;;;4891787;29;20041;-68
2023/04/10 04:20:06;;;;;;;24.25;17.17;;;22.00;53.50;;;;;;4877179;29;20040;-68
2023/04/10 04:22:51;;;;;;;25.95;16.85;;;22.40;55.70;;;;;;4880458;29;20045;-68
2023/04/10 04:25:37;;;;;;;26.35;18.52;;;22.50;54.00;;;;;;4881260;29;20080;-68
2023/04/10 04:28:34;;;;;;;30.15;22.13;;;22.50;51.70;;;;;;4879667;29;20457;-66
2023/04/10 04:31:17;;;;;;;30.20;20.13;;;22.50;47.90;;;;;;4895541;29;20049;-67
2023/04/10 04:34:06;;;;;;;28.48;19.80;;;22.30;46.50;;;;;;4880953;29;20057;-66
2023/04/10 04:37:01;;;;;;;31.77;21.30;;;22.10;46.80;;;;;;4804505;29;20054;-65
2023/04/10 04:39:30;;;;;;;34.63;21.25;;;22.00;47.40;;;;;;4805055;29;20047;-65
2023/04/10 04:42:12;;;;;;;29.65;21.10;;;21.70;48.40;;;;;;4789648;29;20162;-66
2023/04/10 04:45:00;;;;;;;29.35;19.73;;;21.70;49.80;;;;;;4804374;29;20061;-65
2023/04/10 04:47:26;;;;;;;32.13;19.95;;;21.60;50.50;;;;;;4804686;29;20062;-65
2023/04/10 04:50:13;;;;;;;35.92;20.20;;;21.60;50.90;;;;;;4804646;29;20054;-65
2023/04/10 04:52:48;;;;;;;30.83;19.67;;;21.60;51.10;;;;;;4804896;29;20043;-65
2023/04/10 04:55:32;;;;;;;32.95;20.83;;;21.60;52.00;;;;;;4804527;29;20077;-65
2023/04/10 04:58:04;;;;;;;26.85;18.30;;;21.60;50.20;;;;;;4804818;29;20047;-65
2023/04/10 05:00:53;;;;;;;24.40;16.42;;;21.70;48.60;;;;;;4789509;29;20106;-65
2023/04/10 05:03:38;;;;;;;25.42;19.75;;;21.70;47.20;;;;;;4804723;29;20043;-65
2023/04/10 05:06:35;;;;;;;27.75;20.10;;;21.90;45.70;;;;;;4789206;29;20128;-64
2023/04/10 05:09:12;;;;;;;29.50;22.23;;;21.80;44.90;;;;;;4789384;29;20053;-65
2023/04/10 05:11:57;;;;;;;31.38;23.13;;;21.80;45.00;;;;;;4791790;29;20393;-65
2023/04/10 05:14:42;;;;;;;37.78;24.10;;;21.80;44.70;;;;;;4880133;29;20037;-66
2023/04/10 05:17:23;;;;;;;32.83;23.17;;;21.70;45.60;;;;;;4893988;29;20037;-65
2023/04/10 05:20:16;;;;;;;33.17;24.08;;;21.80;46.10;;;;;;4840695;29;20046;-65
2023/04/10 05:22:57;;;;;;;32.95;22.88;;;21.80;46.40;;;;;;4840699;29;20054;-66
2023/04/10 05:25:48;;;;;;;32.50;22.88;;;21.70;47.20;;;;;;4840232;29;20052;-67
2023/04/10 05:28:34;;;;;;;30.75;22.60;;;21.80;46.90;;;;;;4840253;29;20428;-65
2023/04/10 05:31:32;;;;;;;34.92;24.60;;;21.80;47.20;;;;;;4797267;29;20079;-65
2023/04/10 05:34:17;;;;;;;33.30;25.85;;;21.90;49.20;;;;;;4784645;29;20100;-67
2023/04/10 05:37:18;;;;;;;32.38;24.60;;;21.90;47.50;;;;;;4803795;29;20086;-66
2023/04/10 05:40:10;;;;;;;32.17;21.17;;;22.00;47.60;;;;;;4803553;29;20054;-66
2023/04/10 05:43:08;;;;;;;27.70;20.50;;;22.10;48.80;;;;;;4803536;29;20051;-66
2023/04/10 05:45:54;;;;;;;13.10;5.80;;;22.40;47.40;;;;;;4770201;30;20566;-65
2023/04/10 05:48:46;;;;;;;7.28;3.75;;;22.40;58.30;;;;;;4767801;30;20116;-65
2023/04/10 05:51:21;;;;;;;4.18;3.45;;;22.70;56.70;;;;;;4725541;30;20058;-66
2023/04/10 05:54:06;;;;;;;7.93;4.85;;;22.70;55.80;;;;;;4767554;30;20706;-66
2023/04/10 05:56:50;;;;;;;22.23;12.57;;;22.90;54.50;;;;;;4753348;30;20045;-66
2023/04/10 05:59:45;;;;;;;28.75;16.48;;;22.90;53.70;;;;;;4732093;30;20057;-65
2023/04/10 06:02:31;;;;;;;21.27;13.13;;;22.80;52.80;;;;;;4729219;30;20053;-66
2023/04/10 06:04:57;;;;;;;15.88;11.35;;;23.00;54.30;;;;;;4731964;30;20799;-66
2023/04/10 06:07:23;;;;;;;21.33;13.32;;;23.00;53.00;;;;;;4753222;30;20055;-66
2023/04/10 06:09:49;;;;;;;24.00;15.30;;;23.00;52.80;;;;;;4767294;30;20439;-65
2023/04/10 06:12:16;;;;;;;18.83;11.68;;;23.00;52.30;;;;;;4767557;30;20051;-66
2023/04/10 06:14:42;;;;;;;26.88;14.93;;;23.00;52.10;;;;;;4752699;30;20040;-67
2023/04/10 06:17:08;;;;;;;26.88;16.75;;;23.00;52.10;;;;;;4752302;30;20056;-67
2023/04/10 06:19:35;;;;;;;21.67;14.20;;;23.00;51.70;;;;;;4767183;30;20047;-67
2023/04/10 06:22:01;;;;;;;19.42;13.95;;;23.00;51.80;;;;;;4770026;29;20105;-65
2023/04/10 06:24:27;;;;;;;25.67;15.48;;;23.10;51.70;;;;;;4819368;29;20038;-68
2023/04/10 06:26:55;;;;;;;18.42;12.90;;;23.00;51.50;;;;;;4905449;29;20037;-72
2023/04/10 06:29:22;;;;;;;26.80;15.35;;;23.10;51.90;;;;;;4879512;29;20085;-65
2023/04/10 06:31:48;;;;;;;24.02;15.85;;;23.10;51.80;;;;;;4878923;29;20037;-66
2023/04/10 06:34:15;;;;;;;26.92;15.43;;;23.10;51.70;;;;;;4877606;29;20139;-73
2023/04/10 06:36:51;;;;;;;22.75;13.88;;;23.10;51.60;;;;;;4877314;29;20061;-72
2023/04/10 06:39:17;;;;;;;36.80;16.17;;;23.30;52.00;;;;;;4877673;29;20048;-69
2023/04/10 06:41:43;;;;;;;23.90;12.35;;;23.20;52.20;;;;;;4893140;29;20112;-68
2023/04/10 06:44:23;;;;;;;16.30;10.73;;;23.30;51.90;;;;;;4895646;29;20048;-67
2023/04/10 06:46:49;;;;;;;18.52;12.27;;;23.40;51.40;;;;;;4880784;29;20414;-67
2023/04/10 06:49:15;;;;;;;18.38;12.82;;;23.40;51.10;;;;;;4878688;29;20045;-69
2023/04/10 06:51:41;;;;;;;21.23;13.55;;;23.30;50.70;;;;;;4878418;29;20044;-67
2023/04/10 06:54:07;;;;;;;19.05;13.90;;;23.40;50.40;;;;;;4878661;29;20052;-68
2023/04/10 06:56:33;;;;;;;20.95;12.93;;;23.30;50.20;;;;;;4878072;29;20025;-68
2023/04/10 06:59:00;;;;;;;19.92;11.98;;;23.40;50.20;;;;;;4883239;29;20458;-67
2023/04/10 07:01:26;;;;;;;21.75;11.68;;;23.40;50.20;;;;;;4894724;29;20037;-67
2023/04/10 07:03:52;;;;;;;19.60;13.50;;;23.50;50.30;;;;;;4878339;29;20095;-67
2023/04/10 07:06:18;;;;;;;18.83;12.50;;;23.40;50.20;;;;;;4883706;29;20041;-67
2023/04/10 07:08:44;;;;;;;20.60;14.00;;;23.50;50.20;;;;;;4896614;29;20489;-68
2023/04/10 07:11:11;;;;;;;14.35;9.95;;;23.40;50.00;;;;;;4895044;29;20044;-68
2023/04/10 07:13:38;;;;;;;15.35;9.55;;;23.40;50.00;;;;;;4874756;29;20025;-66
2023/04/10 07:16:07;;;;;;;16.75;9.35;;;23.40;50.00;;;;;;4877730;29;20155;-66
2023/04/10 07:18:34;;;;;;;17.10;11.18;;;23.30;49.90;;;;;;4872412;29;20106;-68
2023/04/10 07:21:01;;;;;;;23.50;14.50;;;23.50;51.90;;;;;;4884692;29;20423;-67
2023/04/10 07:23:28;;;;;;;21.70;15.48;;;23.40;53.00;;;;;;4875314;29;20048;-66
2023/04/10 07:25:55;;;;;;;22.95;16.25;;;23.30;52.20;;;;;;4875522;29;20136;-67
2023/04/10 07:28:21;;;;;;;23.90;16.88;;;23.10;52.60;;;;;;4875466;29;20051;-66
2023/04/10 07:30:47;;;;;;;24.50;15.73;;;23.10;53.00;;;;;;4859852;29;20041;-67
2023/04/10 07:33:13;;;;;;;23.13;14.63;;;23.00;53.00;;;;;;4909382;29;20040;-68
2023/04/10 07:35:39;;;;;;;25.13;14.80;;;23.00;53.20;;;;;;4912534;29;20107;-68
2023/04/10 07:38:05;;;;;;;22.65;15.13;;;22.90;54.20;;;;;;4897130;29;20042;-68
2023/04/10 07:40:31;;;;;;;24.65;14.15;;;23.00;55.10;;;;;;4912612;29;20094;-67
2023/04/10 07:42:57;;;;;;;21.88;13.88;;;22.90;55.60;;;;;;4912696;29;20134;-67
2023/04/10 07:45:23;;;;;;;25.23;13.57;;;23.00;55.80;;;;;;4912783;29;20048;-68
2023/04/10 07:47:50;;;;;;;20.75;13.02;;;23.00;55.90;;;;;;4912568;29;20036;-68
2023/04/10 07:50:16;;;;;;;20.20;13.43;;;23.10;56.40;;;;;;4912747;29;20380;-68
2023/04/10 07:52:42;;;;;;;26.45;14.48;;;23.00;56.20;;;;;;4899587;29;20052;-66
2023/04/10 07:55:08;;;;;;;19.33;13.23;;;23.00;55.50;;;;;;4896452;29;20377;-65
2023/04/10 07:57:35;;;;;;;20.35;13.60;;;23.10;54.60;;;;;;4895189;29;20115;-69
2023/04/10 08:00:01;;;;;;;19.95;12.90;;;23.10;54.60;;;;;;4891111;29;20508;-65
2023/04/10 08:02:40;;;;;;;20.52;13.13;;;23.20;54.50;;;;;;4877318;29;20033;-65
2023/04/10 08:05:06;;;;;;;16.88;10.85;;;23.10;54.50;;;;;;4870183;29;20042;-66
2023/04/10 08:07:32;;;;;;;14.65;9.55;;;23.20;54.70;;;;;;4892233;29;20080;-64
2023/04/10 08:09:58;;;;;;;12.18;9.05;;;23.10;54.70;;;;;;4877161;29;20040;-68
2023/04/10 08:12:25;;;;;;;8.15;6.07;;;23.10;54.80;;;;;;4871595;29;20496;-64
2023/04/10 08:14:51;;;;;;;8.35;6.50;;;23.20;54.70;;;;;;4865574;29;20091;-66
2023/04/10 08:17:17;;;;;;;9.32;7.10;;;23.10;55.10;;;;;;4858806;29;20050;-66
2023/04/10 08:19:43;;;;;;;10.82;7.03;;;23.10;55.00;;;;;;4858875;29;20386;-65
2023/04/10 08:22:09;;;;;;;9.90;7.75;;;23.20;55.00;;;;;;4859138;29;20048;-64
2023/04/10 08:24:35;;;;;;;10.55;7.80;;;23.30;55.10;;;;;;4858835;29;20481;-64
2023/04/10 08:27:01;;;;;;;11.10;7.25;;;23.20;55.00;;;;;;4858790;29;20045;-64
2023/04/10 08:29:27;;;;;;;15.60;8.38;;;23.20;54.40;;;;;;4872784;29;20029;-65
2023/04/10 08:31:54;;;;;;;9.05;7.40;;;23.20;55.10;;;;;;4871596;29;20104;-66
2023/04/10 08:34:23;;;;;;;9.30;8.40;;;23.10;55.30;;;;;;4888571;29;20037;-65
2023/04/10 08:36:49;;;;;;;11.60;7.88;;;23.30;55.20;;;;;;4891199;29;20068;-64
2023/04/10 08:39:15;;;;;;;11.15;8.23;;;23.30;55.40;;;;;;4876952;29;20033;-64
2023/04/10 08:41:41;;;;;;;8.75;6.78;;;23.20;55.20;;;;;;4877069;29;20037;-65
2023/04/10 08:44:07;;;;;;;11.23;7.72;;;23.30;55.00;;;;;;4861119;29;20093;-65
2023/04/10 08:46:35;;;;;;;11.45;9.10;;;23.30;54.10;;;;;;4858374;29;20041;-65
2023/04/10 08:49:04;;;;;;;9.95;8.18;;;23.20;49.20;;;;;;4858578;29;20042;-64
2023/04/10 08:51:44;;;;;;;9.93;8.15;;;23.40;47.40;;;;;;4858424;29;20055;-63
2023/04/10 08:54:18;;;;;;;8.80;7.35;;;23.40;47.00;;;;;;4857341;29;20041;-65
2023/04/10 08:56:49;;;;;;;9.60;7.45;;;23.60;52.90;;;;;;4858228;29;20063;-64
2023/04/10 08:59:16;;;;;;;13.35;7.78;;;23.60;53.50;;;;;;4858206;29;20088;-65
2023/04/10 09:01:42;;;;;;;10.98;7.57;;;23.70;53.80;;;;;;4858514;29;20045;-65
2023/04/10 09:04:11;;;;;;;10.68;7.40;;;23.70;54.00;;;;;;4858666;29;20054;-64
2023/04/10 09:06:36;;;;;;;9.70;7.78;;;23.60;54.30;;;;;;4880402;29;20039;-65
2023/04/10 09:09:04;;;;;;;10.65;8.68;;;23.70;54.40;;;;;;4898502;29;20115;-63
2023/04/10 09:11:55;;;;;;;11.35;8.75;;;23.60;54.40;;;;;;4898636;29;20036;-65
2023/04/10 09:14:31;;;;;;;12.27;8.48;;;23.60;54.60;;;;;;4879993;29;20043;-65
2023/04/10 09:17:21;;;;;;;11.73;7.82;;;23.60;54.60;;;;;;4880298;29;20105;-66
2023/04/10 09:19:55;;;;;;;12.07;8.70;;;23.60;54.70;;;;;;4894240;29;20041;-65
2023/04/10 09:22:32;;;;;;;10.77;8.18;;;23.60;54.60;;;;;;4894632;29;20032;-65
2023/04/10 09:24:59;;;;;;;12.32;8.25;;;23.70;54.80;;;;;;4878830;29;20397;-65
2023/04/10 09:27:38;;;;;;;12.80;9.32;;;23.70;54.80;;;;;;4879808;29;20369;-65
2023/04/10 09:30:06;;;;;;;11.48;7.47;;;23.60;55.00;;;;;;4894399;29;20069;-65
2023/04/10 09:32:39;;;;;;;11.57;8.85;;;23.70;55.30;;;;;;4891368;29;20567;-64
2023/04/10 09:35:07;;;;;;;13.88;8.45;;;23.50;55.20;;;;;;4871579;29;20037;-65
2023/04/10 09:37:37;;;;;;;9.88;8.70;;;23.50;45.90;;;;;;4879695;29;20048;-63
2023/04/10 09:40:04;;;;;;;11.70;7.68;;;23.70;45.10;;;;;;4879646;29;20165;-65
2023/04/10 09:42:38;;;;;;;12.02;8.10;;;23.60;43.90;;;;;;4861813;29;20104;-66
2023/04/10 09:45:05;;;;;;;14.32;8.35;;;23.60;45.80;;;;;;4879693;29;20041;-66
2023/04/10 09:47:31;;;;;;;18.77;10.77;;;23.80;49.70;;;;;;4878932;29;20064;-70
2023/04/10 09:49:59;;;;;;;12.13;8.50;;;24.00;52.80;;;;;;4862570;29;20041;-71
2023/04/10 09:52:29;;;;;;;10.35;8.38;;;24.30;55.00;;;;;;4879203;29;20045;-70
2023/04/10 09:55:01;;;;;;;11.77;9.45;;;24.20;56.40;;;;;;4879505;29;20052;-70
2023/04/10 09:57:29;;;;;;;11.82;7.82;;;24.20;55.50;;;;;;4878057;29;20044;-72
2023/04/10 09:59:57;;;;;;;11.07;8.02;;;24.20;55.30;;;;;;4879154;29;20029;-71
2023/04/10 10:02:27;;;;;;;12.80;8.70;;;24.10;54.30;;;;;;4879135;29;20060;-69
2023/04/10 10:04:54;;;;;;;13.00;8.85;;;24.10;53.40;;;;;;4879259;29;20044;-69
2023/04/10 10:07:22;;;;;;;11.00;7.70;;;24.10;53.00;;;;;;4879154;29;20040;-70
2023/04/10 10:09:50;;;;;;;14.85;10.35;;;24.10;53.20;;;;;;4895153;29;20279;-68
2023/04/10 10:12:39;;;;;;;13.57;9.65;;;24.00;51.10;;;;;;4860974;29;20132;-69
2023/04/10 10:15:38;;;;;;;13.35;9.43;;;24.20;51.20;;;;;;4803139;29;20436;-69
2023/04/10 10:18:21;;;;;;;10.82;8.55;;;24.30;54.50;;;;;;4790736;29;20226;-68
2023/04/10 10:20:48;;;;;;;;;;;24.70;48.20;;;;;;4787281;29;20138;-70
2023/04/10 10:23:16;;;;;;;10.30;7.68;;;24.60;46.70;;;;;;4789171;29;19917;-70
2023/04/10 10:25:43;;;;;;;9.18;7.90;;;24.50;45.40;;;;;;4784919;29;20058;-70
2023/04/10 10:28:11;;;;;;;14.25;8.60;;;24.40;48.20;;;;;;4799532;29;20042;-70
2023/04/10 10:30:38;;;;;;;11.63;8.52;;;24.40;47.70;;;;;;4787998;29;20059;-69
2023/04/10 10:33:07;;;;;;;10.88;8.75;;;24.30;47.30;;;;;;4803239;29;20107;-71
2023/04/10 10:35:36;;;;;;;9.73;8.40;;;24.30;47.30;;;;;;4819281;29;20538;-72
2023/04/10 10:38:03;;;;;;;7.80;6.57;;;24.40;52.70;;;;;;4819762;29;20061;-70
2023/04/10 10:40:47;;;;;;;11.13;7.78;;;24.30;53.60;;;;;;4819073;29;20040;-72
2023/04/10 10:43:24;;;;;;;9.00;7.32;;;24.40;53.90;;;;;;4821120;29;20137;-71
2023/04/10 10:45:59;;;;;;;9.75;6.72;;;24.40;54.00;;;;;;4805640;29;20084;-71
2023/04/10 10:48:25;;;;;;;10.52;6.93;;;24.40;54.30;;;;;;4818129;29;20094;-70
2023/04/10 10:50:57;;;;;;;10.65;7.18;;;24.30;54.50;;;;;;4820769;29;20034;-70
2023/04/10 10:53:43;;;;;;;9.20;6.93;;;24.20;54.30;;;;;;4878473;29;20397;-70
2023/04/10 10:56:18;;;;;;;6.95;5.90;;;24.30;54.20;;;;;;4878607;29;20037;-71
2023/04/10 10:58:47;;;;;;;7.00;5.07;;;24.30;53.10;;;;;;4877992;29;20060;-70
2023/04/10 11:01:14;;;;;;;10.15;6.15;;;24.20;54.50;;;;;;4877985;29;20045;-70
2023/04/10 11:03:40;;;;;;;7.88;6.40;;;24.20;54.60;;;;;;4897794;29;20048;-71
2023/04/10 11:06:08;;;;;;;8.00;5.97;;;24.20;54.70;;;;;;4885518;29;20115;-70
2023/04/10 11:08:43;;;;;;;6.30;4.88;;;24.20;54.20;;;;;;4878875;29;20443;-70
2023/04/10 11:11:14;;;;;;;8.10;6.00;;;24.10;54.90;;;;;;4859730;29;20082;-70
2023/04/10 11:13:50;;;;;;;6.60;5.38;;;24.10;54.30;;;;;;4859857;29;20037;-71
2023/04/10 11:16:17;;;;;;;8.35;5.90;;;24.00;55.00;;;;;;4873667;29;20406;-70
2023/04/10 11:18:49;;;;;;;7.13;5.60;;;23.80;55.10;;;;;;4859152;29;20100;-72
2023/04/10 11:21:20;;;;;;;10.10;5.13;;;23.90;55.50;;;;;;4862270;29;20500;-71
2023/04/10 11:23:49;;;;;;;7.68;5.53;;;24.00;56.10;;;;;;4875424;29;20100;-71
2023/04/10 11:26:43;;;;;;;8.35;4.72;;;23.90;55.00;;;;;;4875569;29;20041;-70
2023/04/10 11:29:13;;;;;;;5.75;4.72;;;23.90;56.00;;;;;;4877906;29;20033;-71
2023/04/10 11:31:39;;;;;;;7.13;5.90;;;23.80;55.70;;;;;;4880959;29;20116;-70
2023/04/10 11:34:06;;;;;;;5.97;4.57;;;23.90;55.50;;;;;;4896949;29;20040;-74
2023/04/10 11:36:43;;;;;;;5.97;5.05;;;23.90;55.70;;;;;;4896835;29;20071;-74
2023/04/10 11:39:17;;;;;;;6.90;4.93;;;23.90;55.50;;;;;;4870546;29;20025;-72
2023/04/10 11:41:51;;;;;;;6.85;5.85;;;23.90;53.90;;;;;;4869377;29;20079;-73
2023/04/10 11:44:30;;;;;;;6.45;4.88;;;23.90;53.70;;;;;;4877987;29;20053;-72
2023/04/10 11:46:57;;;;;;;9.07;6.20;;;23.90;52.80;;;;;;4878125;29;20104;-74
2023/04/10 11:49:30;;;;;;;5.97;5.13;;;23.80;51.50;;;;;;4877546;29;20375;-70
2023/04/10 11:51:56;;;;;;;6.68;4.82;;;23.80;52.00;;;;;;4876549;29;20052;-72
2023/04/10 11:54:24;;;;;;;14.07;5.38;;;23.80;51.80;;;;;;4876434;29;20052;-71
2023/04/10 11:57:00;;;;;;;9.60;5.15;;;23.90;54.20;;;;;;4877944;29;20045;-71
2023/04/10 11:59:27;;;;;;;6.13;3.78;;;24.30;57.20;;;;;;4861096;29;20116;-71
2023/04/10 12:02:05;;;;;;;4.53;3.45;;;24.70;55.10;;;;;;4877182;29;20569;-73
2023/04/10 12:04:32;;;;;;;6.00;2.83;;;24.90;52.00;;;;;;4869282;29;20030;-70
2023/04/10 12:06:58;;;;;;;6.50;5.50;;;24.70;50.50;;;;;;4871297;29;20080;-71
2023/04/10 12:09:25;;;;;;;6.97;5.78;;;24.70;52.00;;;;;;4875176;29;20068;-74
2023/04/10 12:12:02;;;;;;;6.88;4.97;;;24.70;49.00;;;;;;4856809;29;20640;-74
2023/04/10 12:14:40;;;;;;;8.00;5.88;;;24.50;49.50;;;;;;4856560;29;20057;-71
2023/04/10 12:17:09;;;;;;;3.60;3.30;;;24.50;50.30;;;;;;4856613;29;20038;-74
2023/04/10 12:19:37;;;;;;;4.20;3.05;;;24.50;49.70;;;;;;4802153;29;20169;-74
2023/04/10 12:22:03;;;;;;;4.43;2.58;;;24.50;50.30;;;;;;4801863;29;20062;-73
2023/04/10 12:24:46;;;;;;;6.28;4.32;;;24.50;50.50;;;;;;4801465;29;20074;-72
2023/04/10 12:27:30;;;;;;;3.55;2.65;;;24.70;51.20;;;;;;4802224;29;20126;-74
2023/04/10 12:29:57;;;;;;;1.92;1.75;;;24.70;50.90;;;;;;4811891;29;20137;-73
2023/04/10 12:32:25;;;;;;;3.58;3.20;;;24.90;49.00;;;;;;4820058;29;20085;-73
2023/04/10 12:34:56;;;;;;;4.78;3.30;;;24.80;51.70;;;;;;4819896;29;20446;-71
2023/04/10 12:37:23;;;;;;;4.90;3.92;;;24.80;53.00;;;;;;4837864;29;20046;-72
2023/04/10 12:39:49;;;;;;;5.93;3.38;;;24.80;51.80;;;;;;4838050;29;20046;-69
2023/04/10 12:42:24;;;;;;;4.57;2.38;;;25.00;52.20;;;;;;4822715;29;20053;-69
2023/04/10 12:44:54;;;;;;;8.43;2.83;;;25.20;52.60;;;;;;4826274;29;20596;-70
2023/04/10 12:47:21;;;;;;;1.85;1.75;;;25.20;52.80;;;;;;4826012;29;20407;-71
2023/04/10 12:50:08;;;;;;;2.10;1.48;;;25.30;51.10;;;;;;4854257;29;20100;-71
2023/04/10 12:52:35;;;;;;;5.47;4.45;;;25.60;55.80;;;;;;4844424;29;20037;-73
2023/04/10 12:55:16;;;;;;;2.90;1.25;;;25.60;54.50;;;;;;4859896;29;20037;-73
2023/04/10 12:57:44;;;;;;;5.35;3.35;;;25.70;56.90;;;;;;4890812;29;20053;-74